Time;durP1;ratioP1;P1;durP2;ratioP2;P2;SDS_P1;SDS_P2;PMS_P1;PMS_P2;Temp;Humidity;BMP_temperature;BMP_pressure;BME280_temperature;BME280_humidity;BME280_pressure;Samples;Min_cycle;Max_cycle;Signal;HPM_P1;HPM_P2
2023/07/09 00:02:27;;;;;;;9.17;7.80;;;19.40;99.90;;;;;;5227787;28;20029;-70
2023/07/09 00:04:58;;;;;;;12.38;7.50;;;19.50;99.90;;;;;;5227617;28;20033;-69
2023/07/09 00:07:32;;;;;;;8.68;7.05;;;19.50;99.90;;;;;;5227505;28;20041;-69
2023/07/09 00:10:03;;;;;;;10.63;7.38;;;19.30;99.90;;;;;;5227363;28;20024;-70
2023/07/09 00:12:34;;;;;;;13.38;7.57;;;19.30;99.90;;;;;;5227562;28;20393;-70
2023/07/09 00:15:09;;;;;;;14.40;7.55;;;19.50;99.90;;;;;;5227293;28;20029;-70
2023/07/09 00:17:40;;;;;;;8.27;7.68;;;19.50;99.90;;;;;;5227308;28;20048;-69
2023/07/09 00:20:17;;;;;;;11.02;7.15;;;19.60;99.90;;;;;;5227289;28;20068;-70
2023/07/09 00:22:52;;;;;;;9.73;6.82;;;19.40;99.90;;;;;;5227385;28;20029;-69
2023/07/09 00:25:24;;;;;;;10.52;7.80;;;19.40;99.90;;;;;;5227143;28;20071;-71
2023/07/09 00:27:54;;;;;;;7.72;6.90;;;19.50;99.90;;;;;;5227039;28;20144;-69
2023/07/09 00:30:25;;;;;;;9.73;8.23;;;19.40;99.90;;;;;;5226990;28;20108;-69
2023/07/09 00:32:56;;;;;;;10.98;7.47;;;19.40;99.90;;;;;;5227084;28;20716;-69
2023/07/09 00:35:27;;;;;;;10.15;7.85;;;19.70;99.90;;;;;;5226735;28;20067;-69
2023/07/09 00:38:00;;;;;;;11.93;7.57;;;19.60;99.90;;;;;;5226815;28;20029;-69
2023/07/09 00:40:31;;;;;;;10.40;7.90;;;19.70;99.90;;;;;;5226586;28;20044;-69
2023/07/09 00:43:02;;;;;;;12.07;8.38;;;19.70;99.90;;;;;;5226842;28;20021;-71
2023/07/09 00:45:33;;;;;;;10.60;8.07;;;19.70;99.90;;;;;;5226695;28;20029;-69
2023/07/09 00:48:12;;;;;;;12.57;8.13;;;19.60;99.90;;;;;;5226738;28;20037;-69
2023/07/09 00:50:53;;;;;;;12.27;8.35;;;19.60;99.90;;;;;;5226837;28;20025;-69
2023/07/09 00:53:29;;;;;;;11.10;7.40;;;19.60;99.90;;;;;;5226792;28;20041;-70
2023/07/09 00:56:05;;;;;;;8.95;7.30;;;19.50;99.90;;;;;;5226750;28;20078;-69
2023/07/09 00:58:37;;;;;;;10.68;7.70;;;19.50;99.90;;;;;;5226703;28;20025;-69
2023/07/09 01:01:15;;;;;;;9.77;6.95;;;19.40;99.90;;;;;;5226690;28;20443;-69
2023/07/09 01:03:52;;;;;;;7.00;6.30;;;19.30;99.90;;;;;;5226832;28;20025;-68
2023/07/09 01:06:54;;;;;;;9.23;6.45;;;19.20;99.90;;;;;;5226864;28;20149;-69
2023/07/09 01:09:25;;;;;;;8.38;7.57;;;19.30;99.90;;;;;;5222007;28;20094;-69
2023/07/09 01:12:01;;;;;;;10.57;7.55;;;19.40;99.90;;;;;;5226626;28;20025;-69
2023/07/09 01:14:31;;;;;;;14.20;7.72;;;19.30;99.90;;;;;;5226493;28;20084;-69
2023/07/09 01:17:05;;;;;;;7.65;6.95;;;19.50;99.90;;;;;;5226398;28;20068;-70
2023/07/09 01:19:43;;;;;;;7.28;6.18;;;19.60;99.90;;;;;;5226594;28;20500;-69
2023/07/09 01:22:17;;;;;;;11.48;7.03;;;19.40;99.90;;;;;;5226419;28;20082;-69
2023/07/09 01:25:06;;;;;;;8.25;6.10;;;19.40;99.90;;;;;;5226348;28;20032;-69
2023/07/09 01:27:43;;;;;;;5.97;5.30;;;19.30;99.90;;;;;;5226247;28;20082;-69
2023/07/09 01:30:34;;;;;;;8.63;5.20;;;19.30;99.90;;;;;;5226335;28;20025;-69
2023/07/09 01:33:06;;;;;;;8.05;5.50;;;19.30;99.90;;;;;;5226454;28;20381;-69
2023/07/09 01:35:41;;;;;;;6.03;5.43;;;19.30;99.90;;;;;;5226233;28;20021;-69
2023/07/09 01:38:11;;;;;;;6.35;5.85;;;19.20;99.90;;;;;;5226290;28;20021;-69
2023/07/09 01:40:42;;;;;;;6.97;5.50;;;19.20;99.90;;;;;;5225870;28;20492;-69
2023/07/09 01:43:13;;;;;;;5.57;5.18;;;19.30;99.90;;;;;;5226346;28;20366;-69
2023/07/09 01:45:44;;;;;;;6.20;5.57;;;19.00;99.90;;;;;;5225987;28;20447;-70
2023/07/09 01:48:15;;;;;;;7.22;5.68;;;19.20;99.90;;;;;;5229841;28;20037;-70
2023/07/09 01:50:48;;;;;;;6.70;5.40;;;19.10;99.90;;;;;;5230201;28;20048;-69
2023/07/09 01:53:26;;;;;;;6.57;5.97;;;18.80;99.90;;;;;;5230247;28;20033;-69
2023/07/09 01:55:57;;;;;;;7.57;4.82;;;19.00;99.90;;;;;;5230119;28;20017;-69
2023/07/09 01:58:31;;;;;;;6.53;4.78;;;18.70;99.90;;;;;;5230182;28;20033;-69
2023/07/09 02:01:02;;;;;;;8.40;5.78;;;19.00;99.90;;;;;;5230083;28;20037;-69
2023/07/09 02:03:33;;;;;;;5.32;4.78;;;19.00;99.90;;;;;;5229994;28;20029;-69
2023/07/09 02:06:09;;;;;;;6.13;5.55;;;18.90;99.90;;;;;;5229880;28;20547;-70
2023/07/09 02:08:40;;;;;;;5.90;5.40;;;18.90;99.90;;;;;;5678549;23;20013;-71
2023/07/09 02:11:10;;;;;;;7.90;5.93;;;18.90;99.90;;;;;;5250446;28;20064;-69
2023/07/09 02:13:41;;;;;;;9.35;5.80;;;18.60;99.90;;;;;;5250511;28;20061;-69
2023/07/09 02:16:12;;;;;;;5.72;5.22;;;18.70;99.90;;;;;;5250588;28;20052;-70
2023/07/09 02:18:43;;;;;;;6.13;5.50;;;18.60;99.90;;;;;;5250661;28;20032;-70
2023/07/09 02:21:13;;;;;;;6.68;5.13;;;18.60;99.90;;;;;;5250566;28;20422;-69
2023/07/09 02:23:44;;;;;;;6.63;5.55;;;18.50;99.90;;;;;;5249139;28;20020;-69
2023/07/09 02:26:15;;;;;;;6.35;4.85;;;18.30;99.90;;;;;;5250297;28;20021;-69
2023/07/09 02:28:46;;;;;;;8.10;5.38;;;18.30;99.90;;;;;;5250311;28;20033;-69
2023/07/09 02:31:17;;;;;;;6.60;4.85;;;18.40;99.90;;;;;;5250133;28;20025;-69
2023/07/09 02:33:47;;;;;;;7.15;4.90;;;18.50;99.90;;;;;;5250183;28;20085;-69
2023/07/09 02:36:18;;;;;;;6.72;6.05;;;18.60;99.90;;;;;;5250017;28;20503;-69
2023/07/09 02:38:49;;;;;;;7.15;5.65;;;18.30;99.90;;;;;;5249897;28;20036;-69
2023/07/09 02:41:20;;;;;;;7.28;5.53;;;18.20;99.90;;;;;;5250064;28;20032;-69
2023/07/09 02:43:50;;;;;;;10.23;5.35;;;18.30;99.90;;;;;;5250122;28;20057;-69
2023/07/09 02:46:21;;;;;;;6.22;5.05;;;18.20;99.90;;;;;;5249615;28;20028;-69
2023/07/09 02:48:52;;;;;;;5.72;5.20;;;18.10;99.90;;;;;;5249909;28;20037;-69
2023/07/09 02:51:24;;;;;;;7.15;5.32;;;18.10;99.90;;;;;;5248517;28;20036;-69
2023/07/09 02:53:56;;;;;;;6.18;5.57;;;18.10;99.90;;;;;;5249794;28;20107;-71
2023/07/09 02:56:28;;;;;;;8.18;4.40;;;18.20;99.90;;;;;;5249627;28;20027;-69
2023/07/09 02:58:59;;;;;;;5.15;4.72;;;18.00;99.90;;;;;;5248433;28;20460;-69
2023/07/09 03:01:34;;;;;;;7.45;5.78;;;18.30;99.90;;;;;;5249558;28;20013;-69
2023/07/09 03:04:05;;;;;;;5.82;5.28;;;18.30;99.90;;;;;;5249503;28;20013;-70
2023/07/09 03:06:36;;;;;;;5.80;5.18;;;18.40;99.90;;;;;;5249326;28;20049;-70
2023/07/09 03:09:07;;;;;;;6.97;5.10;;;18.20;99.90;;;;;;5249161;28;20492;-70
2023/07/09 03:11:38;;;;;;;7.20;5.97;;;18.10;99.90;;;;;;5249245;28;20028;-69
2023/07/09 03:14:09;;;;;;;7.05;5.93;;;18.20;99.90;;;;;;5249518;28;20031;-69
2023/07/09 03:16:40;;;;;;;9.93;6.68;;;18.20;99.90;;;;;;5249326;28;20021;-69
2023/07/09 03:19:11;;;;;;;14.95;7.88;;;18.30;99.90;;;;;;5249279;28;20017;-69
2023/07/09 03:21:42;;;;;;;9.93;6.45;;;18.30;99.90;;;;;;5249319;28;20029;-69
2023/07/09 03:24:15;;;;;;;11.48;6.30;;;18.20;99.90;;;;;;5249130;28;20073;-69
2023/07/09 03:26:46;;;;;;;8.38;6.97;;;17.80;99.90;;;;;;5248888;28;20035;-69
2023/07/09 03:29:17;;;;;;;8.55;6.93;;;17.90;99.90;;;;;;5249194;28;20028;-69
2023/07/09 03:31:49;;;;;;;11.85;7.60;;;18.00;99.90;;;;;;5249379;28;20032;-69
2023/07/09 03:34:19;;;;;;;10.88;6.40;;;17.80;99.90;;;;;;5249246;28;20096;-70
2023/07/09 03:36:50;;;;;;;11.85;6.90;;;18.10;99.90;;;;;;5249039;28;20487;-69
2023/07/09 03:39:21;;;;;;;10.27;7.20;;;18.20;99.90;;;;;;5248760;28;20028;-69
2023/07/09 03:41:52;;;;;;;10.73;7.63;;;18.20;99.90;;;;;;5248979;28;20151;-69
2023/07/09 03:44:23;;;;;;;11.77;7.82;;;18.20;99.90;;;;;;5248941;28;20050;-70
2023/07/09 03:46:53;;;;;;;9.27;8.32;;;18.20;99.90;;;;;;5248613;28;20492;-69
2023/07/09 03:49:24;;;;;;;9.13;8.23;;;18.10;99.90;;;;;;5248603;28;20017;-69
2023/07/09 03:51:55;;;;;;;9.15;7.93;;;18.30;99.90;;;;;;5248772;28;20032;-69
2023/07/09 03:54:26;;;;;;;10.75;8.80;;;18.50;99.90;;;;;;5248578;28;20092;-70
2023/07/09 03:56:56;;;;;;;8.82;7.95;;;18.70;99.90;;;;;;5248593;28;20028;-69
2023/07/09 03:59:27;;;;;;;9.48;8.50;;;18.90;99.90;;;;;;5248424;28;20031;-69
2023/07/09 04:01:58;;;;;;;8.93;7.30;;;18.70;99.90;;;;;;5248478;28;20174;-69
2023/07/09 04:04:29;;;;;;;12.23;6.63;;;18.90;99.90;;;;;;5248395;28;20141;-69
2023/07/09 04:06:59;;;;;;;11.18;8.07;;;18.90;99.90;;;;;;5248344;28;20048;-69
2023/07/09 04:09:30;;;;;;;9.00;8.20;;;19.10;99.90;;;;;;5247465;28;20046;-69
2023/07/09 04:12:02;;;;;;;8.50;6.88;;;19.30;99.90;;;;;;5248188;28;20041;-69
2023/07/09 04:14:34;;;;;;;7.57;6.32;;;19.50;99.90;;;;;;5248190;28;20024;-69
2023/07/09 04:17:05;;;;;;;6.72;6.00;;;19.60;99.90;;;;;;5248127;28;20468;-71
2023/07/09 04:19:36;;;;;;;6.88;5.95;;;19.80;99.90;;;;;;5247965;28;20023;-69
2023/07/09 04:22:06;;;;;;;8.20;6.07;;;19.90;99.90;;;;;;5247918;28;20032;-70
2023/07/09 04:24:37;;;;;;;9.38;6.40;;;19.70;99.90;;;;;;5247989;28;20035;-70
2023/07/09 04:27:08;;;;;;;7.30;5.68;;;19.70;99.90;;;;;;5247699;28;20498;-69
2023/07/09 04:29:39;;;;;;;6.55;5.22;;;19.80;99.90;;;;;;5247688;28;20131;-71
2023/07/09 04:32:15;;;;;;;7.13;5.40;;;20.30;99.90;;;;;;5247664;28;20036;-69
2023/07/09 04:34:46;;;;;;;5.50;5.00;;;20.40;99.90;;;;;;5247595;28;20025;-69
2023/07/09 04:37:17;;;;;;;5.32;4.82;;;20.60;99.90;;;;;;5247740;28;20380;-69
2023/07/09 04:39:48;;;;;;;9.07;5.47;;;20.90;99.90;;;;;;5247338;28;20090;-69
2023/07/09 04:42:18;;;;;;;7.20;6.68;;;21.10;99.90;;;;;;5247695;28;20032;-71
2023/07/09 04:44:49;;;;;;;6.85;6.25;;;21.20;99.90;;;;;;5248156;28;20028;-69
2023/07/09 04:47:20;;;;;;;10.90;9.57;;;21.10;99.90;;;;;;5247679;28;20105;-69
2023/07/09 04:49:51;;;;;;;7.93;7.22;;;21.50;99.90;;;;;;5247917;28;20133;-69
2023/07/09 04:52:22;;;;;;;8.10;6.65;;;21.70;99.90;;;;;;5247508;28;20044;-71
2023/07/09 04:54:52;;;;;;;6.03;5.38;;;21.80;99.90;;;;;;5247473;28;21220;-69
2023/07/09 04:57:24;;;;;;;10.15;5.97;;;21.90;99.90;;;;;;5247565;28;20027;-70
2023/07/09 04:59:56;;;;;;;5.85;5.25;;;21.90;99.90;;;;;;5247374;28;20044;-69
2023/07/09 05:02:27;;;;;;;5.60;5.10;;;22.00;99.90;;;;;;5247469;28;20032;-69
2023/07/09 05:04:58;;;;;;;5.00;4.60;;;22.10;99.90;;;;;;5247314;28;20460;-70
2023/07/09 05:07:29;;;;;;;4.22;3.78;;;22.20;99.90;;;;;;5247204;28;20032;-69
2023/07/09 05:10:00;;;;;;;8.38;3.90;;;22.30;99.90;;;;;;5246928;28;20045;-70
2023/07/09 05:12:31;;;;;;;7.15;4.60;;;22.30;99.90;;;;;;5247176;28;20029;-70
2023/07/09 05:15:02;;;;;;;6.95;4.78;;;22.50;99.90;;;;;;5247141;28;20021;-69
2023/07/09 05:17:33;;;;;;;6.65;4.63;;;22.50;99.90;;;;;;5246980;28;20115;-70
2023/07/09 05:20:04;;;;;;;5.60;4.57;;;22.70;99.90;;;;;;5245961;28;20104;-69
2023/07/09 05:22:35;;;;;;;6.03;5.03;;;22.90;99.90;;;;;;5246304;28;20030;-70
2023/07/09 05:25:06;;;;;;;6.35;5.75;;;22.80;99.90;;;;;;5246963;28;20028;-71
2023/07/09 05:27:36;;;;;;;10.00;5.53;;;22.60;99.90;;;;;;5246871;28;20124;-69
2023/07/09 05:30:08;;;;;;;6.65;6.00;;;22.80;99.90;;;;;;5247153;28;20108;-69
2023/07/09 05:32:39;;;;;;;5.78;5.32;;;22.90;99.90;;;;;;5247117;28;20112;-69
2023/07/09 05:35:10;;;;;;;6.32;5.72;;;23.00;99.90;;;;;;5247080;28;20463;-69
2023/07/09 05:37:41;;;;;;;6.45;5.20;;;23.10;99.90;;;;;;5247041;28;20021;-70
2023/07/09 05:40:12;;;;;;;8.93;7.75;;;23.00;99.90;;;;;;5246738;28;20061;-69
2023/07/09 05:42:42;;;;;;;8.68;6.25;;;23.20;99.90;;;;;;5247048;28;20141;-71
2023/07/09 05:45:13;;;;;;;6.43;5.75;;;23.30;99.90;;;;;;5246856;28;20020;-70
2023/07/09 05:47:44;;;;;;;6.28;5.20;;;23.40;99.90;;;;;;5246817;28;20047;-69
2023/07/09 05:50:15;;;;;;;5.85;4.85;;;23.30;99.90;;;;;;5246763;28;20476;-69
2023/07/09 05:52:46;;;;;;;5.40;4.60;;;23.50;99.90;;;;;;5246883;28;20360;-69
2023/07/09 05:55:17;;;;;;;8.80;4.18;;;23.60;99.90;;;;;;5246871;28;20103;-69
2023/07/09 05:57:48;;;;;;;8.75;4.20;;;23.60;99.90;;;;;;5246807;28;20025;-69
2023/07/09 06:00:19;;;;;;;7.85;3.90;;;23.60;99.90;;;;;;5246664;28;20032;-69
2023/07/09 06:02:50;;;;;;;4.35;3.85;;;23.70;99.90;;;;;;5246868;28;20032;-69
2023/07/09 06:05:21;;;;;;;5.55;4.10;;;23.90;99.90;;;;;;5246615;28;20388;-69
2023/07/09 06:07:52;;;;;;;6.70;3.67;;;24.10;99.90;;;;;;5246725;28;20048;-70
2023/07/09 06:10:23;;;;;;;8.90;3.28;;;24.20;99.90;;;;;;5246823;28;20040;-70
2023/07/09 06:12:53;;;;;;;5.00;3.75;;;24.30;99.90;;;;;;5246931;28;20032;-70
2023/07/09 06:15:25;;;;;;;5.13;3.83;;;23.80;99.90;;;;;;5246813;28;20016;-69
2023/07/09 06:17:56;;;;;;;9.88;4.10;;;23.70;99.90;;;;;;5246747;28;20028;-69
2023/07/09 06:20:27;;;;;;;5.03;4.20;;;23.60;99.90;;;;;;5246766;28;20021;-70
2023/07/09 06:22:57;;;;;;;4.85;3.80;;;24.00;99.90;;;;;;5246542;28;20035;-70
2023/07/09 06:25:28;;;;;;;4.45;4.00;;;24.30;99.90;;;;;;5246605;28;20448;-69
2023/07/09 06:27:59;;;;;;;6.40;4.28;;;24.20;99.90;;;;;;5246324;28;20040;-69
2023/07/09 06:30:30;;;;;;;8.57;3.53;;;24.50;99.90;;;;;;5246466;28;20025;-69
2023/07/09 06:33:00;;;;;;;5.53;3.45;;;24.30;99.90;;;;;;5247857;28;20094;-69
2023/07/09 06:35:32;;;;;;;4.90;3.38;;;24.40;99.90;;;;;;5250191;28;20023;-69
2023/07/09 06:38:03;;;;;;;7.13;3.00;;;24.30;99.90;;;;;;5250099;28;20035;-70
2023/07/09 06:40:35;;;;;;;5.35;3.53;;;24.60;99.90;;;;;;5249904;28;20067;-69
2023/07/09 06:43:06;;;;;;;5.00;3.42;;;24.30;99.90;;;;;;5249920;28;20013;-71
2023/07/09 06:45:37;;;;;;;6.75;3.88;;;24.60;99.90;;;;;;5249826;28;20406;-69
2023/07/09 06:48:07;;;;;;;5.75;4.22;;;24.50;99.90;;;;;;5249834;28;20497;-70
2023/07/09 06:50:38;;;;;;;9.15;4.15;;;24.50;99.90;;;;;;5249958;28;20112;-69
2023/07/09 06:53:09;;;;;;;10.30;3.63;;;24.40;99.90;;;;;;5249839;28;20111;-69
2023/07/09 06:55:40;;;;;;;7.13;4.03;;;24.50;99.90;;;;;;5249681;28;20560;-69
2023/07/09 06:58:11;;;;;;;5.30;3.70;;;24.70;99.90;;;;;;5249640;28;20035;-70
2023/07/09 07:00:42;;;;;;;5.70;3.92;;;24.50;99.90;;;;;;5249497;28;20039;-70
2023/07/09 07:03:12;;;;;;;7.80;4.22;;;24.20;99.90;;;;;;5249619;28;20039;-70
2023/07/09 07:05:50;;;;;;;6.90;4.05;;;24.20;99.90;;;;;;5249464;28;20060;-70
2023/07/09 07:08:23;;;;;;;4.72;4.30;;;24.40;99.90;;;;;;5249265;28;20043;-69
2023/07/09 07:11:02;;;;;;;4.68;4.28;;;24.70;99.90;;;;;;5249307;28;20052;-69
2023/07/09 07:13:39;;;;;;;3.47;3.17;;;24.80;99.90;;;;;;5249414;28;20032;-71
2023/07/09 07:16:12;;;;;;;6.60;3.58;;;24.80;99.90;;;;;;5249472;28;20453;-70
2023/07/09 07:18:43;;;;;;;6.55;3.40;;;24.70;99.90;;;;;;5249545;28;20817;-70
2023/07/09 07:21:13;;;;;;;5.75;3.40;;;24.70;99.90;;;;;;5249243;28;20517;-69
2023/07/09 07:23:44;;;;;;;3.70;3.22;;;24.60;99.90;;;;;;5249280;28;20184;-69
2023/07/09 07:26:15;;;;;;;6.50;3.67;;;24.70;99.90;;;;;;5248975;28;20024;-70
2023/07/09 07:28:46;;;;;;;6.38;3.28;;;24.50;99.90;;;;;;5249127;28;20032;-71
2023/07/09 07:31:17;;;;;;;5.35;3.33;;;24.40;99.90;;;;;;5249164;28;20029;-69
2023/07/09 07:33:48;;;;;;;4.88;3.80;;;24.20;99.90;;;;;;5249101;28;20139;-69
2023/07/09 07:36:19;;;;;;;6.88;3.47;;;24.40;99.90;;;;;;5248957;28;20020;-69
2023/07/09 07:38:49;;;;;;;6.20;3.53;;;24.40;99.90;;;;;;5248812;28;20036;-70
2023/07/09 07:41:20;;;;;;;6.65;3.58;;;24.10;99.90;;;;;;5248788;28;20039;-69
2023/07/09 07:43:51;;;;;;;5.15;3.60;;;24.30;99.90;;;;;;5248389;28;20134;-69
2023/07/09 07:46:22;;;;;;;4.55;3.40;;;24.10;99.90;;;;;;5248346;28;20029;-70
2023/07/09 07:48:52;;;;;;;5.30;3.92;;;24.30;99.90;;;;;;5248717;28;20039;-70
2023/07/09 07:51:23;;;;;;;4.03;3.58;;;24.40;99.90;;;;;;5248643;28;20039;-69
2023/07/09 07:53:55;;;;;;;7.05;3.88;;;24.30;99.90;;;;;;5248590;28;20104;-69
2023/07/09 07:56:25;;;;;;;7.15;4.10;;;24.20;99.90;;;;;;5248550;28;20635;-70
2023/07/09 07:58:56;;;;;;;4.68;3.97;;;24.10;99.90;;;;;;5248522;28;20046;-70
2023/07/09 08:01:27;;;;;;;9.02;4.30;;;24.30;99.90;;;;;;5248435;28;20024;-70
2023/07/09 08:03:58;;;;;;;4.40;3.60;;;24.20;99.90;;;;;;5248325;28;20120;-69
2023/07/09 08:06:31;;;;;;;4.55;3.72;;;24.20;99.90;;;;;;5248122;28;20111;-69
2023/07/09 08:09:02;;;;;;;7.72;3.90;;;24.30;99.90;;;;;;5247755;28;20121;-71
2023/07/09 08:11:34;;;;;;;5.13;4.15;;;24.40;99.90;;;;;;5248150;28;20043;-70
2023/07/09 08:14:06;;;;;;;5.70;4.13;;;24.30;99.90;;;;;;5248142;28;20051;-69
2023/07/09 08:16:37;;;;;;;8.05;3.80;;;24.00;99.90;;;;;;5248194;28;20032;-69
2023/07/09 08:19:09;;;;;;;3.72;3.38;;;24.20;99.90;;;;;;5248307;28;20032;-70
2023/07/09 08:21:39;;;;;;;6.72;3.47;;;24.40;99.90;;;;;;5247987;28;20028;-70
2023/07/09 08:24:10;;;;;;;4.72;3.50;;;24.40;99.90;;;;;;5248026;28;20021;-70
2023/07/09 08:26:41;;;;;;;3.30;2.97;;;24.80;99.90;;;;;;5247744;28;20035;-69
2023/07/09 08:29:12;;;;;;;4.07;3.65;;;24.80;99.90;;;;;;5248058;28;20035;-70
2023/07/09 08:31:43;;;;;;;6.05;3.33;;;24.90;99.90;;;;;;5248199;28;20376;-69
2023/07/09 08:34:13;;;;;;;10.52;4.10;;;24.70;99.90;;;;;;5247960;28;20024;-70
2023/07/09 08:36:44;;;;;;;4.55;3.65;;;24.80;99.90;;;;;;5247941;28;20525;-70
2023/07/09 08:39:15;;;;;;;6.22;4.07;;;24.90;99.90;;;;;;5247727;28;20100;-70
2023/07/09 08:41:52;;;;;;;4.72;3.33;;;25.10;99.90;;;;;;5247834;28;20031;-69
2023/07/09 08:44:50;;;;;;;6.13;3.75;;;24.80;99.90;;;;;;5247583;28;20118;-69
2023/07/09 08:47:34;;;;;;;5.40;3.35;;;24.80;99.90;;;;;;5247517;28;20063;-70
2023/07/09 08:50:29;;;;;;;5.30;3.40;;;24.90;99.90;;;;;;5247660;28;20055;-69
2023/07/09 08:53:01;;;;;;;4.55;3.30;;;25.20;99.90;;;;;;5247568;28;20034;-69
2023/07/09 08:55:40;;;;;;;3.90;3.50;;;25.20;99.90;;;;;;5247376;28;20029;-69
2023/07/09 08:58:40;;;;;;;4.53;4.10;;;25.00;99.90;;;;;;5247386;28;20051;-69
2023/07/09 09:01:19;;;;;;;4.22;3.30;;;24.80;99.90;;;;;;5238571;28;20095;-70
2023/07/09 09:03:53;;;;;;;7.22;3.58;;;25.30;99.90;;;;;;5247286;28;20063;-69
2023/07/09 09:06:30;;;;;;;5.93;3.70;;;25.20;99.90;;;;;;5247056;28;20032;-70
2023/07/09 09:09:32;;;;;;;4.93;3.78;;;25.20;99.90;;;;;;5246744;28;20395;-70
2023/07/09 09:12:27;;;;;;;8.15;3.40;;;25.30;99.90;;;;;;5247208;28;20118;-70
2023/07/09 09:15:14;;;;;;;5.32;4.57;;;25.40;99.90;;;;;;5247189;28;20408;-70
2023/07/09 09:17:47;;;;;;;8.07;4.18;;;25.10;99.90;;;;;;5247048;28;20429;-70
2023/07/09 09:20:22;;;;;;;5.50;5.00;;;25.30;99.90;;;;;;5247113;28;20020;-70
2023/07/09 09:23:14;;;;;;;5.28;4.78;;;25.10;99.90;;;;;;5246932;28;20377;-70
2023/07/09 09:25:52;;;;;;;6.40;5.88;;;25.00;99.90;;;;;;5246962;28;20029;-70
2023/07/09 09:28:25;;;;;;;7.50;5.35;;;25.00;99.90;;;;;;5245924;28;20040;-70
2023/07/09 09:30:56;;;;;;;5.68;5.18;;;25.00;99.90;;;;;;5246949;28;20017;-70
2023/07/09 09:33:40;;;;;;;7.95;5.60;;;25.00;99.90;;;;;;5247018;28;20028;-69
2023/07/09 09:36:25;;;;;;;5.57;4.40;;;25.00;99.90;;;;;;5246920;28;20074;-70
2023/07/09 09:38:56;;;;;;;11.80;5.50;;;24.70;99.90;;;;;;5246919;28;20357;-70
2023/07/09 09:41:34;;;;;;;6.88;5.00;;;25.00;99.90;;;;;;5246943;28;20032;-70
2023/07/09 09:44:06;;;;;;;7.35;5.00;;;24.80;99.90;;;;;;5247131;28;20044;-71
2023/07/09 09:46:37;;;;;;;5.57;4.80;;;25.20;99.90;;;;;;5246809;28;20091;-70
2023/07/09 09:49:10;;;;;;;9.40;5.70;;;25.30;99.90;;;;;;5246853;28;20392;-71
2023/07/09 09:51:46;;;;;;;6.43;5.45;;;25.60;99.90;;;;;;5246917;28;20086;-69
2023/07/09 09:54:26;;;;;;;7.97;5.10;;;25.50;99.90;;;;;;5246783;28;20048;-71
2023/07/09 09:56:57;;;;;;;6.30;5.00;;;25.70;99.90;;;;;;5246937;28;20071;-70
2023/07/09 09:59:32;;;;;;;6.10;5.00;;;25.60;99.90;;;;;;5246744;28;20469;-70
2023/07/09 10:02:16;;;;;;;7.45;4.93;;;25.80;99.90;;;;;;5246703;28;20037;-69
2023/07/09 10:04:48;;;;;;;6.40;5.80;;;25.90;99.90;;;;;;5246848;28;20024;-70
2023/07/09 10:07:29;;;;;;;6.78;5.65;;;25.90;99.90;;;;;;5246857;28;20055;-70
2023/07/09 10:10:02;;;;;;;8.85;6.25;;;26.00;99.90;;;;;;5250312;28;20056;-71
2023/07/09 10:12:52;;;;;;;9.32;6.55;;;26.10;99.90;;;;;;5250471;28;20082;-70
2023/07/09 10:15:46;;;;;;;6.63;5.68;;;26.60;99.90;;;;;;5250517;28;20111;-71
2023/07/09 10:18:38;;;;;;;6.53;5.88;;;26.50;99.90;;;;;;5250621;28;20024;-70
2023/07/09 10:21:33;;;;;;;8.55;5.68;;;26.30;99.90;;;;;;5250521;28;20032;-71
2023/07/09 10:24:44;;;;;;;9.77;5.65;;;26.80;99.90;;;;;;5250270;28;20059;-70
2023/07/09 10:28:01;;;;;;;5.97;4.32;;;26.30;99.90;;;;;;5250228;28;20453;-70
2023/07/09 10:31:06;;;;;;;7.68;4.93;;;26.20;99.90;;;;;;5246850;28;20391;-70
2023/07/09 10:34:04;;;;;;;7.95;5.00;;;26.80;99.90;;;;;;5250259;28;20101;-71
2023/07/09 10:36:44;;;;;;;6.53;5.10;;;27.10;99.90;;;;;;5250127;28;20154;-71
2023/07/09 10:39:21;;;;;;;;;;;26.90;99.90;;;;;;5250191;28;20285;-71
2023/07/09 10:41:59;;;;;;;9.68;5.45;;;27.00;99.90;;;;;;5248624;28;20383;-71
2023/07/09 10:44:35;;;;;;;6.03;5.45;;;27.30;99.90;;;;;;5250044;28;20028;-70
2023/07/09 10:47:28;;;;;;;8.45;5.32;;;27.30;99.90;;;;;;5248413;28;20033;-70
2023/07/09 10:50:02;;;;;;;6.63;4.90;;;27.10;99.90;;;;;;5249916;28;20084;-71
2023/07/09 10:52:44;;;;;;;9.20;5.22;;;27.50;99.90;;;;;;5249766;28;20032;-70
2023/07/09 10:55:50;;;;;;;6.32;5.57;;;27.40;99.90;;;;;;5249718;28;20018;-71
2023/07/09 10:58:24;;;;;;;8.23;6.10;;;27.40;99.90;;;;;;5249836;28;20035;-70
2023/07/09 11:00:55;;;;;;;9.43;5.90;;;27.00;99.90;;;;;;5249694;28;20372;-70
2023/07/09 11:03:43;;;;;;;8.82;6.57;;;27.40;99.90;;;;;;5249713;28;20342;-71
2023/07/09 11:06:31;;;;;;;8.18;6.07;;;27.30;99.90;;;;;;5249403;28;20031;-70
2023/07/09 11:09:04;;;;;;;6.88;6.15;;;27.40;99.90;;;;;;5249273;28;20045;-71
2023/07/09 11:11:45;;;;;;;8.48;5.97;;;27.50;99.90;;;;;;5249528;28;20032;-70
2023/07/09 11:14:51;;;;;;;7.70;6.30;;;27.60;99.90;;;;;;5249352;28;20028;-71
2023/07/09 11:17:22;;;;;;;8.00;5.97;;;27.80;99.90;;;;;;5249368;28;20111;-70
2023/07/09 11:19:56;;;;;;;10.63;6.88;;;27.60;99.90;;;;;;5248297;28;20024;-71
2023/07/09 11:22:37;;;;;;;9.77;5.35;;;27.70;99.90;;;;;;5249276;28;20051;-71
2023/07/09 11:25:26;;;;;;;6.97;5.22;;;27.80;99.90;;;;;;5249309;28;20488;-71
2023/07/09 11:28:05;;;;;;;7.22;6.28;;;27.90;99.90;;;;;;5248940;28;20043;-71
2023/07/09 11:30:54;;;;;;;6.88;5.97;;;27.90;99.90;;;;;;5247978;28;20020;-70
2023/07/09 11:33:29;;;;;;;10.23;4.78;;;28.20;99.90;;;;;;5249065;28;20032;-71
2023/07/09 11:36:12;;;;;;;10.35;5.03;;;28.30;99.90;;;;;;5249040;28;20379;-71
2023/07/09 11:38:46;;;;;;;5.75;4.43;;;28.30;99.90;;;;;;5248900;28;20028;-71
2023/07/09 11:41:34;;;;;;;7.93;4.15;;;27.80;99.90;;;;;;5248908;28;20029;-70
2023/07/09 11:44:18;;;;;;;16.83;11.70;;;28.10;99.90;;;;;;5248816;28;20084;-70
2023/07/09 11:46:49;;;;;;;6.40;4.30;;;28.20;99.90;;;;;;5248701;28;20081;-70
2023/07/09 11:49:23;;;;;;;9.30;4.85;;;27.90;99.90;;;;;;5248751;28;20540;-70
2023/07/09 11:52:02;;;;;;;7.03;4.75;;;28.20;99.90;;;;;;5247383;28;20032;-70
2023/07/09 11:54:37;;;;;;;9.43;4.85;;;28.10;99.90;;;;;;5248440;28;20031;-70
2023/07/09 11:57:15;;;;;;;5.00;4.60;;;28.20;99.90;;;;;;5248483;28;20035;-70
2023/07/09 11:59:46;;;;;;;8.40;4.80;;;28.20;99.90;;;;;;5248565;28;20033;-70
2023/07/09 12:02:19;;;;;;;9.40;4.65;;;28.00;99.90;;;;;;5248515;28;20054;-70
2023/07/09 12:04:52;;;;;;;7.20;3.80;;;28.40;99.90;;;;;;5248342;28;20449;-70
2023/07/09 12:07:24;;;;;;;6.78;4.38;;;28.40;99.90;;;;;;5248112;28;20127;-70
2023/07/09 12:09:55;;;;;;;6.68;4.45;;;28.50;99.90;;;;;;5248090;28;20055;-70
2023/07/09 12:12:28;;;;;;;9.63;3.60;;;28.50;99.90;;;;;;5248407;28;20430;-69
2023/07/09 12:14:59;;;;;;;6.72;4.40;;;28.40;99.90;;;;;;5248156;28;20021;-70
2023/07/09 12:17:32;;;;;;;8.05;4.00;;;28.50;99.90;;;;;;5248154;28;20024;-70
2023/07/09 12:20:05;;;;;;;4.53;4.05;;;28.70;99.90;;;;;;5248048;28;20016;-70
2023/07/09 12:22:36;;;;;;;8.63;4.38;;;28.70;99.90;;;;;;5248099;28;20024;-70
2023/07/09 12:25:20;;;;;;;5.75;3.97;;;28.60;99.90;;;;;;5248006;28;20512;-70
2023/07/09 12:27:51;;;;;;;6.60;3.78;;;28.60;99.90;;;;;;5247734;28;20068;-70
2023/07/09 12:30:22;;;;;;;5.93;4.20;;;28.40;99.90;;;;;;5247650;28;20525;-71
2023/07/09 12:32:53;;;;;;;7.75;4.80;;;28.60;99.90;;;;;;5247736;28;20021;-70
2023/07/09 12:35:24;;;;;;;7.20;3.97;;;28.40;99.90;;;;;;5247933;28;20029;-70
2023/07/09 12:37:57;;;;;;;7.85;4.10;;;28.50;99.90;;;;;;5247656;28;20016;-70
2023/07/09 12:40:30;;;;;;;6.75;4.78;;;28.10;99.90;;;;;;5247595;28;20032;-70
2023/07/09 12:43:01;;;;;;;9.43;4.55;;;28.10;99.90;;;;;;5247553;28;20032;-71
2023/07/09 12:45:34;;;;;;;9.00;5.10;;;28.40;99.90;;;;;;5247536;28;20111;-70
2023/07/09 12:48:05;;;;;;;6.80;4.60;;;28.00;99.90;;;;;;5247432;28;20480;-70
2023/07/09 12:50:36;;;;;;;9.40;5.45;;;27.90;99.90;;;;;;5247563;28;20032;-70
2023/07/09 12:53:15;;;;;;;11.48;5.97;;;28.30;99.90;;;;;;5247401;28;20017;-70
2023/07/09 12:55:47;;;;;;;;;;;28.30;99.90;;;;;;5247762;28;20040;-70
2023/07/09 12:58:24;;;;;;;8.70;4.60;;;28.40;99.90;;;;;;5247423;28;20351;-70
2023/07/09 13:00:57;;;;;;;6.03;4.95;;;28.50;99.90;;;;;;5247399;28;20016;-70
2023/07/09 13:03:31;;;;;;;8.88;4.57;;;28.80;99.90;;;;;;5247246;28;20035;-70
2023/07/09 13:06:07;;;;;;;10.02;5.13;;;28.90;99.90;;;;;;5247109;28;20032;-70
2023/07/09 13:08:43;;;;;;;6.40;4.45;;;28.60;99.90;;;;;;5246838;28;20476;-70
2023/07/09 13:11:18;;;;;;;5.70;5.15;;;28.60;99.90;;;;;;5247527;28;20039;-70
2023/07/09 13:14:03;;;;;;;7.07;5.07;;;28.60;99.90;;;;;;5247295;28;20032;-70
2023/07/09 13:16:40;;;;;;;8.98;4.70;;;28.80;99.90;;;;;;5247461;28;20031;-70
2023/07/09 13:19:11;;;;;;;6.80;4.55;;;29.00;99.90;;;;;;5247260;28;20471;-70
2023/07/09 13:21:42;;;;;;;6.88;4.72;;;29.10;99.90;;;;;;5247290;28;20052;-70
2023/07/09 13:24:24;;;;;;;9.05;4.65;;;28.90;99.90;;;;;;5247306;28;20028;-71